createdAt,value
2019-05-19T06:07:08.142Z,60.35
2019-05-19T06:09:39.200Z,59.55
2019-05-19T06:12:09.769Z,58.17
2019-05-19T06:14:40.289Z,59.98
2019-05-19T06:17:11.027Z,59.13
2019-05-19T06:19:41.991Z,59.93
2019-05-19T06:22:12.447Z,58.30
2019-05-19T06:24:43.792Z,57.75
2019-05-19T06:27:14.724Z,59.13
2019-05-19T06:29:46.098Z,58.35
2019-05-19T06:32:35.955Z,57.20
2019-05-19T06:35:07.113Z,57.30
2019-05-19T06:37:37.956Z,57.73
2019-05-19T06:40:10.723Z,57.17
2019-05-19T06:42:41.399Z,57.50
2019-05-19T06:45:14.552Z,58.02
2019-05-19T06:47:47.021Z,55.85
2019-05-19T06:50:18.869Z,55.92
2019-05-19T06:52:49.619Z,56.00
2019-05-19T06:55:20.949Z,57.50
2019-05-19T06:57:51.797Z,56.05
2019-05-19T07:00:28.085Z,55.33
2019-05-19T07:02:59.185Z,52.23
2019-05-19T07:05:32.850Z,52.95
2019-05-19T07:08:04.129Z,54.15
2019-05-19T07:10:35.212Z,54.42
2019-05-19T07:13:05.806Z,51.18
2019-05-19T07:15:36.849Z,53.85
2019-05-19T07:18:07.629Z,53.13
2019-05-19T07:20:38.542Z,51.00
2019-05-19T07:23:09.414Z,54.10
2019-05-19T07:25:39.886Z,52.78
2019-05-19T07:28:10.631Z,51.42
2019-05-19T07:30:41.806Z,53.15
2019-05-19T07:33:14.065Z,53.40
2019-05-19T07:35:48.494Z,56.05
2019-05-19T07:38:20.827Z,54.38
2019-05-19T07:40:52.108Z,53.25
2019-05-19T07:43:25.441Z,54.10
2019-05-19T07:46:46.030Z,51.40
2019-05-19T07:54:57.206Z,53.30
2019-05-19T07:57:28.612Z,50.50
2019-05-19T07:59:59.662Z,51.65
2019-05-19T08:02:30.145Z,51.70
2019-05-19T08:05:02.128Z,50.40
2019-05-19T08:07:32.894Z,49.67
2019-05-19T08:10:04.650Z,48.85
2019-05-19T08:12:35.372Z,48.98
2019-05-19T08:15:32.939Z,49.30
2019-05-19T08:21:17.978Z,47.70
2019-05-19T08:24:00.041Z,50.20
2019-05-19T08:26:22.096Z,49.23
2019-05-19T08:28:53.194Z,49.63
2019-05-19T08:31:24.139Z,48.95
2019-05-19T08:33:56.676Z,48.15
2019-05-19T08:36:27.888Z,48.63
2019-05-19T08:38:59.523Z,49.85
2019-05-19T08:41:30.265Z,47.95
2019-05-19T08:44:13.825Z,49.45
2019-05-19T08:46:44.278Z,47.83
2019-05-19T08:49:15.175Z,48.13
2019-05-19T08:52:10.537Z,48.40
2019-05-19T08:54:43.227Z,49.73
2019-05-19T08:57:15.579Z,49.05
2019-05-19T08:59:55.351Z,49.55
2019-05-19T09:02:26.213Z,49.90
2019-05-19T09:05:02.272Z,49.85
2019-05-19T09:07:56.080Z,49.08
2019-05-19T09:10:27.610Z,50.95
2019-05-19T09:13:00.090Z,49.20
2019-05-19T09:16:04.257Z,49.60
2019-05-19T09:19:17.165Z,49.77
2019-05-19T09:22:13.480Z,51.88
2019-05-19T09:24:44.839Z,50.92
2019-05-19T09:27:16.172Z,50.00
2019-05-19T09:29:46.897Z,49.42
2019-05-19T09:32:18.405Z,49.58
2019-05-19T09:34:50.084Z,49.00
2019-05-19T09:37:21.376Z,47.83
2019-05-19T09:39:52.288Z,49.13
2019-05-19T09:42:23.244Z,49.65
2019-05-19T09:44:54.337Z,49.50
2019-05-19T09:47:25.868Z,49.35
2019-05-19T09:49:56.436Z,48.00
2019-05-19T09:52:27.698Z,49.65
2019-05-19T09:54:59.416Z,52.27
2019-05-19T09:57:30.218Z,50.12
2019-05-19T10:04:48.421Z,48.55
2019-05-19T10:07:19.558Z,46.33
2019-05-19T10:10:08.844Z,45.30
2019-05-19T10:15:51.876Z,47.50
2019-05-19T10:18:23.095Z,47.75
2019-05-19T10:20:54.503Z,48.78
2019-05-19T10:23:25.097Z,46.85
2019-05-19T10:25:55.882Z,44.83
2019-05-19T10:28:27.163Z,46.30
2019-05-19T10:30:57.860Z,45.67
2019-05-19T10:33:29.252Z,45.43
2019-05-19T10:35:59.873Z,43.50
2019-05-19T10:38:30.982Z,43.87
2019-05-19T10:41:03.661Z,43.25
2019-05-19T10:43:34.083Z,44.80
2019-05-19T10:46:05.396Z,45.05
2019-05-19T10:48:36.097Z,43.80
2019-05-19T10:51:07.503Z,45.43
2019-05-19T10:54:17.775Z,42.33
2019-05-19T10:56:48.851Z,44.42
2019-05-19T10:59:19.951Z,42.20
2019-05-19T11:01:50.806Z,46.40
2019-05-19T11:04:22.536Z,42.98
2019-05-19T11:06:53.325Z,43.58
2019-05-19T11:09:24.435Z,41.45
2019-05-19T11:11:55.482Z,44.20
2019-05-19T11:14:26.182Z,42.33
2019-05-19T11:16:57.378Z,41.85
2019-05-19T11:19:28.853Z,42.40
2019-05-19T11:22:00.465Z,40.73
2019-05-19T11:27:27.202Z,41.80
2019-05-19T11:31:31.854Z,41.45
2019-05-19T11:34:02.715Z,40.00
2019-05-19T11:36:33.739Z,42.50
2019-05-19T11:39:07.143Z,40.35
2019-05-19T11:42:17.810Z,39.63
2019-05-19T11:44:49.369Z,39.92
2019-05-19T11:47:20.203Z,40.92
2019-05-19T11:49:51.075Z,40.78
2019-05-19T11:52:22.055Z,40.12
2019-05-19T11:54:52.641Z,40.33
2019-05-19T12:00:18.285Z,38.55
2019-05-19T12:05:30.659Z,40.23
2019-05-19T12:08:01.827Z,39.03
2019-05-19T12:10:41.471Z,38.80
2019-05-19T12:13:12.269Z,36.70
2019-05-19T12:15:43.152Z,40.10
2019-05-19T12:18:14.555Z,39.23
2019-05-19T12:20:45.303Z,39.18
2019-05-19T12:23:17.103Z,36.77
2019-05-19T12:32:54.098Z,40.30
2019-05-19T12:35:24.829Z,40.67
2019-05-19T12:37:55.798Z,40.83
2019-05-19T12:40:26.690Z,40.17
2019-05-19T12:42:57.268Z,38.95
2019-05-19T12:45:29.389Z,38.85
2019-05-19T12:48:00.598Z,38.65
2019-05-19T12:50:31.560Z,37.93
2019-05-19T12:53:02.224Z,39.35
2019-05-19T12:55:32.718Z,39.42
2019-05-19T12:58:03.341Z,37.65
2019-05-19T13:00:34.137Z,40.12
2019-05-19T13:03:04.921Z,38.17
2019-05-19T13:05:35.338Z,38.67
2019-05-19T13:08:05.914Z,38.83
2019-05-19T13:10:36.747Z,39.10
2019-05-19T13:13:07.120Z,39.70
2019-05-19T13:16:12.720Z,38.40
2019-05-19T13:18:43.370Z,37.08
2019-05-19T13:21:13.793Z,39.00
2019-05-19T13:23:44.349Z,38.17
2019-05-19T13:26:16.218Z,38.00
2019-05-19T13:28:46.704Z,37.08
2019-05-19T13:31:17.760Z,38.90
2019-05-19T13:33:48.278Z,37.58
2019-05-19T13:36:18.815Z,38.73
2019-05-19T13:38:49.746Z,38.38
2019-05-19T13:41:21.852Z,37.90
2019-05-19T13:43:52.437Z,39.33
2019-05-19T13:50:26.935Z,39.63
2019-05-19T13:52:59.379Z,39.25
2019-05-19T13:55:30.999Z,39.42
2019-05-19T13:58:03.634Z,39.48
2019-05-19T14:00:34.670Z,38.08
2019-05-19T14:03:06.059Z,39.25
2019-05-19T14:05:36.917Z,40.58
2019-05-19T14:08:07.527Z,39.75
2019-05-19T14:11:15.622Z,41.08
2019-05-19T14:13:46.317Z,41.18
2019-05-19T14:16:17.380Z,42.62
2019-05-19T14:18:48.750Z,42.40
2019-05-19T14:21:19.243Z,40.83
2019-05-19T14:23:50.202Z,42.62
2019-05-19T14:26:21.273Z,42.98
2019-05-19T14:28:52.179Z,41.88
2019-05-19T14:31:22.979Z,40.90
2019-05-19T14:33:54.034Z,41.28
2019-05-19T14:36:24.864Z,40.25
2019-05-19T14:39:05.405Z,40.43
2019-05-19T14:41:39.001Z,39.50
2019-05-19T14:44:10.082Z,41.18
2019-05-19T14:46:41.117Z,40.98
2019-05-19T14:49:12.904Z,40.78
2019-05-19T14:54:31.581Z,41.42
2019-05-19T14:57:02.578Z,41.28
2019-05-19T14:59:34.477Z,42.30
2019-05-19T15:04:53.808Z,39.50
2019-05-19T15:07:25.560Z,39.23
2019-05-19T15:10:03.056Z,39.65
2019-05-19T15:12:33.541Z,38.30
2019-05-19T15:15:15.925Z,36.93
2019-05-19T15:17:46.297Z,37.70
2019-05-19T15:20:18.601Z,37.45
2019-05-19T15:22:52.469Z,38.33
2019-05-19T15:25:23.700Z,37.58
2019-05-19T15:28:00.155Z,36.35
2019-05-19T15:30:30.003Z,37.70
2019-05-19T15:33:01.824Z,34.92
2019-05-19T15:35:32.731Z,34.75
2019-05-19T15:38:04.399Z,34.60
2019-05-19T15:40:35.167Z,36.13
2019-05-19T15:43:05.861Z,34.23
2019-05-19T15:45:38.237Z,33.65
2019-05-19T15:48:09.823Z,36.35
2019-05-19T15:50:40.521Z,33.38
2019-05-19T15:53:13.858Z,34.73
2019-05-19T15:55:58.384Z,34.53
2019-05-19T15:58:29.213Z,34.38
2019-05-19T16:01:01.302Z,34.13
2019-05-19T16:03:31.909Z,36.20
2019-05-19T16:06:02.735Z,34.88
2019-05-19T16:08:33.907Z,35.13
2019-05-19T16:11:06.077Z,35.80
2019-05-19T16:13:37.833Z,35.20
2019-05-19T16:16:08.724Z,35.35
2019-05-19T16:18:39.564Z,35.17
2019-05-19T16:21:10.212Z,36.63
2019-05-19T16:23:41.358Z,34.30
2019-05-19T16:26:12.757Z,33.80
2019-05-19T16:28:45.667Z,35.10
2019-05-19T16:31:16.418Z,34.18
2019-05-19T16:33:46.902Z,33.58
2019-05-19T16:36:18.466Z,35.55
2019-05-19T16:38:48.613Z,33.98
2019-05-19T16:41:18.915Z,35.43
2019-05-19T16:44:20.554Z,34.90
2019-05-19T16:46:50.789Z,36.10
2019-05-19T16:49:21.856Z,35.78
2019-05-19T16:51:58.702Z,34.35
2019-05-19T16:54:33.873Z,34.98
2019-05-19T16:57:04.112Z,35.17
2019-05-19T16:59:35.110Z,33.65
2019-05-19T17:02:05.443Z,34.53
2019-05-19T17:04:36.155Z,35.75
2019-05-19T17:07:06.734Z,36.23
2019-05-19T17:09:37.264Z,34.00
2019-05-19T17:12:07.513Z,35.65
2019-05-19T17:15:05.383Z,33.75
2019-05-19T17:17:33.545Z,33.25
2019-05-19T17:20:04.326Z,32.05
2019-05-19T17:22:34.666Z,31.85
2019-05-19T17:25:05.027Z,31.52
2019-05-19T17:27:41.955Z,32.45
2019-05-19T17:30:14.294Z,31.27
2019-05-19T17:32:44.515Z,30.68
2019-05-19T17:35:14.875Z,30.77
2019-05-19T17:37:45.134Z,29.32
2019-05-19T17:40:20.005Z,30.85
2019-05-19T17:42:50.284Z,31.65
2019-05-19T17:45:21.184Z,30.32
2019-05-19T17:47:53.663Z,32.38
2019-05-19T17:50:35.108Z,30.15
2019-05-19T17:53:05.572Z,31.33
2019-05-19T17:55:36.566Z,32.48
2019-05-19T17:58:07.258Z,32.33
2019-05-19T18:00:42.183Z,30.37
2019-05-19T18:03:26.266Z,31.52
2019-05-19T18:06:34.634Z,31.97
2019-05-19T18:09:06.775Z,32.10
2019-05-19T18:11:44.130Z,30.62
2019-05-19T18:14:14.308Z,32.55
2019-05-19T18:16:44.633Z,33.28
2019-05-19T18:19:15.335Z,34.73
2019-05-19T18:21:46.044Z,35.52
2019-05-19T18:24:16.341Z,37.15
2019-05-19T18:26:46.746Z,35.52
2019-05-19T18:29:30.483Z,36.28
2019-05-19T18:31:49.362Z,37.83
2019-05-19T18:34:20.026Z,36.75
2019-05-19T18:36:50.280Z,32.78
2019-05-19T18:39:21.361Z,32.75
2019-05-19T18:41:51.491Z,34.60
2019-05-19T18:44:22.345Z,34.55
2019-05-19T18:46:52.651Z,34.18
2019-05-19T18:49:22.897Z,36.55
2019-05-19T18:51:53.681Z,35.83
2019-05-19T18:54:23.925Z,33.42
2019-05-19T18:56:54.159Z,32.05
2019-05-19T18:59:24.979Z,32.33
2019-05-19T19:01:55.238Z,33.38
2019-05-19T19:04:25.696Z,31.65
2019-05-19T19:06:55.916Z,35.52
2019-05-19T19:09:26.104Z,37.58
2019-05-19T19:11:56.568Z,37.90
2019-05-19T19:14:27.755Z,39.38
2019-05-19T19:16:58.789Z,38.08
2019-05-19T19:19:29.503Z,40.67
2019-05-19T19:21:59.765Z,43.00
2019-05-19T19:24:30.014Z,44.15
2019-05-19T19:27:00.214Z,44.40
2019-05-19T19:29:30.438Z,42.90
2019-05-19T19:32:00.831Z,45.80
2019-05-19T19:34:31.114Z,47.43
2019-05-19T19:37:01.818Z,50.60
2019-05-19T19:39:32.744Z,52.17
2019-05-19T19:42:03.259Z,52.55
2019-05-19T19:44:34.203Z,52.50
2019-05-19T19:47:04.376Z,53.50
2019-05-19T19:49:36.941Z,54.48
2019-05-19T19:52:07.230Z,55.48
2019-05-19T19:54:41.118Z,57.15
2019-05-19T19:57:13.120Z,56.40
2019-05-19T19:59:43.693Z,56.37
2019-05-19T20:02:22.545Z,55.40
2019-05-19T20:04:52.809Z,53.45
2019-05-19T20:07:23.065Z,54.05
2019-05-19T20:09:58.808Z,53.87
2019-05-19T20:12:35.248Z,55.15
2019-05-19T20:15:32.925Z,55.00
2019-05-19T20:18:03.576Z,54.08
2019-05-19T20:20:33.834Z,57.08
2019-05-19T20:23:04.971Z,56.10
2019-05-19T20:25:37.194Z,56.10
2019-05-19T20:28:07.673Z,58.50
2019-05-19T20:30:37.984Z,60.60
2019-05-19T20:33:09.246Z,61.58
2019-05-19T20:35:39.811Z,58.52
2019-05-19T20:38:09.964Z,60.52
2019-05-19T20:40:40.261Z,60.30
2019-05-19T20:43:33.124Z,60.38
2019-05-19T20:46:04.292Z,57.67
2019-05-19T20:48:34.529Z,58.40
2019-05-19T20:51:05.462Z,59.20
2019-05-19T20:53:40.616Z,57.27
2019-05-19T21:03:19.674Z,56.53
2019-05-19T21:05:50.162Z,56.70
2019-05-19T21:12:19.364Z,58.87
2019-05-19T21:14:44.420Z,59.63
2019-05-19T21:17:19.147Z,58.00
2019-05-19T21:19:57.931Z,59.35
2019-05-19T21:23:10.072Z,58.58
2019-05-19T21:29:18.015Z,57.45
2019-05-19T21:31:50.180Z,59.60
2019-05-19T21:40:09.975Z,58.45
2019-05-19T21:46:21.871Z,57.03
2019-05-19T21:49:17.666Z,55.52
2019-05-19T21:53:00.956Z,56.37
2019-05-19T21:55:34.497Z,55.50
2019-05-19T21:58:16.406Z,52.43
2019-05-19T22:01:22.770Z,53.17
2019-05-19T22:04:29.350Z,52.20
2019-05-19T22:07:53.357Z,49.93
2019-05-19T22:10:31.338Z,48.65
2019-05-19T22:13:19.666Z,45.60
2019-05-19T22:15:51.339Z,48.87
2019-05-19T22:18:23.147Z,48.15
2019-05-19T22:20:57.366Z,48.28
2019-05-19T22:23:39.287Z,49.10
2019-05-19T22:26:28.699Z,45.40
2019-05-19T22:29:08.576Z,49.27
2019-05-19T22:32:06.714Z,46.15
2019-05-19T22:37:52.752Z,48.35
2019-05-19T22:40:24.444Z,47.93
2019-05-19T22:43:33.566Z,48.30
2019-05-19T22:46:20.678Z,48.87
2019-05-19T22:48:59.329Z,47.03
2019-05-19T22:51:38.307Z,45.92
2019-05-19T22:57:04.355Z,47.45
2019-05-19T22:59:50.316Z,50.67
2019-05-19T23:02:41.182Z,48.00
2019-05-19T23:05:31.995Z,48.28
2019-05-19T23:08:03.229Z,49.63
2019-05-19T23:10:58.234Z,48.28
2019-05-19T23:13:30.294Z,45.40
2019-05-19T23:16:14.206Z,46.58
2019-05-19T23:18:46.038Z,43.87
2019-05-19T23:22:16.840Z,43.13
2019-05-19T23:24:49.940Z,44.77
2019-05-19T23:27:24.710Z,44.23
2019-05-19T23:30:21.150Z,42.70
2019-05-19T23:33:15.344Z,43.48
2019-05-19T23:36:14.573Z,41.55
2019-05-19T23:38:56.960Z,40.60
2019-05-19T23:44:38.475Z,38.80
2019-05-19T23:47:45.000Z,37.17
2019-05-19T23:50:18.550Z,36.35
2019-05-19T23:53:06.889Z,37.17
2019-05-19T23:55:40.577Z,36.68
